sensor_id;sensor_type;location;lat;lon;timestamp;temperature;humidity
43087;DHT22;28708;52.224;6.924;2023-06-19T00:02:20;23.20;89.50
43087;DHT22;28708;52.224;6.924;2023-06-19T00:04:46;23.00;89.40
43087;DHT22;28708;52.224;6.924;2023-06-19T00:07:12;23.00;89.60
43087;DHT22;28708;52.224;6.924;2023-06-19T00:09:37;23.10;90.00
43087;DHT22;28708;52.224;6.924;2023-06-19T00:12:03;23.10;89.70
43087;DHT22;28708;52.224;6.924;2023-06-19T00:14:29;23.10;89.80
43087;DHT22;28708;52.224;6.924;2023-06-19T00:16:55;23.10;89.80
43087;DHT22;28708;52.224;6.924;2023-06-19T00:19:22;23.00;89.90
43087;DHT22;28708;52.224;6.924;2023-06-19T00:21:48;22.90;90.20
43087;DHT22;28708;52.224;6.924;2023-06-19T00:24:13;23.00;90.10
43087;DHT22;28708;52.224;6.924;2023-06-19T00:26:39;23.10;90.10
43087;DHT22;28708;52.224;6.924;2023-06-19T00:29:05;23.10;90.40
43087;DHT22;28708;52.224;6.924;2023-06-19T00:31:32;23.10;90.20
43087;DHT22;28708;52.224;6.924;2023-06-19T00:33:58;23.10;91.10
43087;DHT22;28708;52.224;6.924;2023-06-19T00:36:24;23.00;91.00
43087;DHT22;28708;52.224;6.924;2023-06-19T00:38:52;22.90;91.60
43087;DHT22;28708;52.224;6.924;2023-06-19T00:41:20;22.90;91.10
43087;DHT22;28708;52.224;6.924;2023-06-19T00:43:46;22.90;92.30
43087;DHT22;28708;52.224;6.924;2023-06-19T00:46:12;22.80;92.30
43087;DHT22;28708;52.224;6.924;2023-06-19T00:48:38;22.80;92.40
43087;DHT22;28708;52.224;6.924;2023-06-19T00:51:04;22.80;92.90
43087;DHT22;28708;52.224;6.924;2023-06-19T00:53:30;22.80;92.10
43087;DHT22;28708;52.224;6.924;2023-06-19T00:55:59;22.80;91.50
43087;DHT22;28708;52.224;6.924;2023-06-19T00:58:25;22.80;91.60
43087;DHT22;28708;52.224;6.924;2023-06-19T01:00:51;22.80;91.40
43087;DHT22;28708;52.224;6.924;2023-06-19T01:03:17;22.70;91.60
43087;DHT22;28708;52.224;6.924;2023-06-19T01:05:44;22.70;91.60
43087;DHT22;28708;52.224;6.924;2023-06-19T01:11:01;22.60;92.00
43087;DHT22;28708;52.224;6.924;2023-06-19T01:15:58;22.70;91.90
43087;DHT22;28708;52.224;6.924;2023-06-19T01:18:25;22.80;91.90
43087;DHT22;28708;52.224;6.924;2023-06-19T01:20:52;22.70;92.20
43087;DHT22;28708;52.224;6.924;2023-06-19T01:23:18;22.70;92.30
43087;DHT22;28708;52.224;6.924;2023-06-19T01:25:44;22.80;92.50
43087;DHT22;28708;52.224;6.924;2023-06-19T01:28:11;22.90;92.30
43087;DHT22;28708;52.224;6.924;2023-06-19T01:30:39;22.90;92.50
43087;DHT22;28708;52.224;6.924;2023-06-19T01:33:11;22.80;92.70
43087;DHT22;28708;52.224;6.924;2023-06-19T01:35:40;22.90;92.90
43087;DHT22;28708;52.224;6.924;2023-06-19T01:38:07;22.90;92.80
43087;DHT22;28708;52.224;6.924;2023-06-19T01:40:34;23.00;93.00
43087;DHT22;28708;52.224;6.924;2023-06-19T01:43:00;23.00;93.10
43087;DHT22;28708;52.224;6.924;2023-06-19T01:45:30;23.00;93.20
43087;DHT22;28708;52.224;6.924;2023-06-19T01:47:56;22.90;93.40
43087;DHT22;28708;52.224;6.924;2023-06-19T01:50:23;22.90;93.60
43087;DHT22;28708;52.224;6.924;2023-06-19T01:52:50;22.90;93.90
43087;DHT22;28708;52.224;6.924;2023-06-19T01:55:16;23.00;93.80
43087;DHT22;28708;52.224;6.924;2023-06-19T01:57:42;22.90;94.00
43087;DHT22;28708;52.224;6.924;2023-06-19T02:00:08;22.90;94.10
43087;DHT22;28708;52.224;6.924;2023-06-19T02:02:39;23.00;94.20
43087;DHT22;28708;52.224;6.924;2023-06-19T02:05:05;23.00;94.10
43087;DHT22;28708;52.224;6.924;2023-06-19T02:07:31;22.90;94.40
43087;DHT22;28708;52.224;6.924;2023-06-19T02:09:57;22.90;94.50
43087;DHT22;28708;52.224;6.924;2023-06-19T02:12:23;22.80;94.70
43087;DHT22;28708;52.224;6.924;2023-06-19T02:14:49;22.70;95.00
43087;DHT22;28708;52.224;6.924;2023-06-19T02:17:15;22.70;95.10
43087;DHT22;28708;52.224;6.924;2023-06-19T02:19:40;22.60;95.30
43087;DHT22;28708;52.224;6.924;2023-06-19T02:22:06;22.70;95.20
43087;DHT22;28708;52.224;6.924;2023-06-19T02:24:32;22.60;95.40
43087;DHT22;28708;52.224;6.924;2023-06-19T02:26:58;22.50;95.90
43087;DHT22;28708;52.224;6.924;2023-06-19T02:29:24;22.50;96.20
43087;DHT22;28708;52.224;6.924;2023-06-19T02:31:50;22.40;96.30
43087;DHT22;28708;52.224;6.924;2023-06-19T02:34:16;22.40;96.50
43087;DHT22;28708;52.224;6.924;2023-06-19T02:36:42;22.40;96.60
43087;DHT22;28708;52.224;6.924;2023-06-19T02:39:08;22.40;96.80
43087;DHT22;28708;52.224;6.924;2023-06-19T02:41:34;22.30;97.00
43087;DHT22;28708;52.224;6.924;2023-06-19T02:44:02;22.30;97.10
43087;DHT22;28708;52.224;6.924;2023-06-19T02:46:28;22.30;97.00
43087;DHT22;28708;52.224;6.924;2023-06-19T02:48:54;22.30;97.00
43087;DHT22;28708;52.224;6.924;2023-06-19T02:51:21;22.30;97.20
43087;DHT22;28708;52.224;6.924;2023-06-19T02:53:47;22.20;97.50
43087;DHT22;28708;52.224;6.924;2023-06-19T02:56:13;22.10;97.80
43087;DHT22;28708;52.224;6.924;2023-06-19T02:58:38;22.10;98.00
43087;DHT22;28708;52.224;6.924;2023-06-19T03:01:04;22.10;98.30
43087;DHT22;28708;52.224;6.924;2023-06-19T03:03:32;22.00;98.60
43087;DHT22;28708;52.224;6.924;2023-06-19T03:06:06;22.00;99.10
43087;DHT22;28708;52.224;6.924;2023-06-19T03:08:35;22.00;99.50
43087;DHT22;28708;52.224;6.924;2023-06-19T03:11:01;21.90;99.90
43087;DHT22;28708;52.224;6.924;2023-06-19T03:13:43;21.90;99.90
43087;DHT22;28708;52.224;6.924;2023-06-19T03:16:09;21.90;99.90
43087;DHT22;28708;52.224;6.924;2023-06-19T03:18:34;21.90;99.90
43087;DHT22;28708;52.224;6.924;2023-06-19T03:21:00;21.90;99.90
43087;DHT22;28708;52.224;6.924;2023-06-19T03:23:26;21.90;99.90
43087;DHT22;28708;52.224;6.924;2023-06-19T03:25:51;21.90;99.90
43087;DHT22;28708;52.224;6.924;2023-06-19T03:28:17;21.90;99.90
43087;DHT22;28708;52.224;6.924;2023-06-19T03:30:43;21.90;99.90
43087;DHT22;28708;52.224;6.924;2023-06-19T03:33:09;21.90;99.90
43087;DHT22;28708;52.224;6.924;2023-06-19T03:35:39;21.80;99.90
43087;DHT22;28708;52.224;6.924;2023-06-19T03:38:07;21.80;99.90
43087;DHT22;28708;52.224;6.924;2023-06-19T03:40:33;21.90;99.90
43087;DHT22;28708;52.224;6.924;2023-06-19T03:43:05;21.80;99.90
43087;DHT22;28708;52.224;6.924;2023-06-19T03:45:31;21.80;99.90
43087;DHT22;28708;52.224;6.924;2023-06-19T03:47:57;21.70;99.90
43087;DHT22;28708;52.224;6.924;2023-06-19T03:50:22;21.80;99.90
43087;DHT22;28708;52.224;6.924;2023-06-19T03:52:48;21.80;99.90
43087;DHT22;28708;52.224;6.924;2023-06-19T03:55:14;21.70;99.90
43087;DHT22;28708;52.224;6.924;2023-06-19T03:57:39;21.70;99.90
43087;DHT22;28708;52.224;6.924;2023-06-19T04:00:05;21.60;99.90
43087;DHT22;28708;52.224;6.924;2023-06-19T04:02:38;21.60;99.90
43087;DHT22;28708;52.224;6.924;2023-06-19T04:05:04;21.60;99.90
43087;DHT22;28708;52.224;6.924;2023-06-19T04:07:29;21.50;99.90
43087;DHT22;28708;52.224;6.924;2023-06-19T04:09:57;21.40;99.90
43087;DHT22;28708;52.224;6.924;2023-06-19T04:12:23;21.40;99.90
43087;DHT22;28708;52.224;6.924;2023-06-19T04:14:48;21.40;99.90
43087;DHT22;28708;52.224;6.924;2023-06-19T04:17:14;21.40;99.90
43087;DHT22;28708;52.224;6.924;2023-06-19T04:19:41;21.40;99.90
43087;DHT22;28708;52.224;6.924;2023-06-19T04:22:07;21.40;99.90
43087;DHT22;28708;52.224;6.924;2023-06-19T04:24:33;21.40;99.90
43087;DHT22;28708;52.224;6.924;2023-06-19T04:26:59;21.40;99.90
43087;DHT22;28708;52.224;6.924;2023-06-19T04:29:24;21.30;99.90
43087;DHT22;28708;52.224;6.924;2023-06-19T04:31:50;21.20;99.90
43087;DHT22;28708;52.224;6.924;2023-06-19T04:34:17;21.20;99.90
43087;DHT22;28708;52.224;6.924;2023-06-19T04:36:47;21.10;99.90
43087;DHT22;28708;52.224;6.924;2023-06-19T04:39:13;21.10;99.90
43087;DHT22;28708;52.224;6.924;2023-06-19T04:41:38;21.00;99.90
43087;DHT22;28708;52.224;6.924;2023-06-19T04:44:07;21.00;99.90
43087;DHT22;28708;52.224;6.924;2023-06-19T04:46:33;21.00;99.90
43087;DHT22;28708;52.224;6.924;2023-06-19T04:48:59;20.90;99.90
43087;DHT22;28708;52.224;6.924;2023-06-19T04:51:25;20.80;99.90
43087;DHT22;28708;52.224;6.924;2023-06-19T04:53:52;20.60;99.90
43087;DHT22;28708;52.224;6.924;2023-06-19T04:56:17;20.60;99.90
43087;DHT22;28708;52.224;6.924;2023-06-19T04:58:43;20.60;99.90
43087;DHT22;28708;52.224;6.924;2023-06-19T05:01:15;20.50;99.90
43087;DHT22;28708;52.224;6.924;2023-06-19T05:03:44;20.50;99.90
43087;DHT22;28708;52.224;6.924;2023-06-19T05:06:10;20.50;99.90
43087;DHT22;28708;52.224;6.924;2023-06-19T05:08:36;20.50;99.90
43087;DHT22;28708;52.224;6.924;2023-06-19T05:11:02;20.50;99.90
43087;DHT22;28708;52.224;6.924;2023-06-19T05:13:28;20.40;99.90
43087;DHT22;28708;52.224;6.924;2023-06-19T05:15:53;20.50;99.90
43087;DHT22;28708;52.224;6.924;2023-06-19T05:18:21;20.50;99.90
43087;DHT22;28708;52.224;6.924;2023-06-19T05:20:46;20.60;99.90
43087;DHT22;28708;52.224;6.924;2023-06-19T05:23:12;20.60;99.90
43087;DHT22;28708;52.224;6.924;2023-06-19T05:25:38;20.60;99.90
43087;DHT22;28708;52.224;6.924;2023-06-19T05:28:04;20.90;99.90
43087;DHT22;28708;52.224;6.924;2023-06-19T05:30:29;20.80;99.90
43087;DHT22;28708;52.224;6.924;2023-06-19T05:32:55;20.80;99.90
43087;DHT22;28708;52.224;6.924;2023-06-19T05:35:21;20.70;99.90
43087;DHT22;28708;52.224;6.924;2023-06-19T05:37:47;20.70;99.90
43087;DHT22;28708;52.224;6.924;2023-06-19T05:40:13;20.50;99.90
43087;DHT22;28708;52.224;6.924;2023-06-19T05:42:40;20.50;99.90
43087;DHT22;28708;52.224;6.924;2023-06-19T05:45:06;20.60;99.90
43087;DHT22;28708;52.224;6.924;2023-06-19T05:47:32;20.80;99.90
43087;DHT22;28708;52.224;6.924;2023-06-19T05:49:58;20.80;99.90
43087;DHT22;28708;52.224;6.924;2023-06-19T05:52:24;20.80;99.90
43087;DHT22;28708;52.224;6.924;2023-06-19T05:54:50;20.90;99.90
43087;DHT22;28708;52.224;6.924;2023-06-19T05:57:15;20.80;99.90
43087;DHT22;28708;52.224;6.924;2023-06-19T05:59:42;20.90;99.90
43087;DHT22;28708;52.224;6.924;2023-06-19T06:02:07;21.00;99.90
43087;DHT22;28708;52.224;6.924;2023-06-19T06:04:33;21.10;99.90
43087;DHT22;28708;52.224;6.924;2023-06-19T06:07:02;20.90;99.90
43087;DHT22;28708;52.224;6.924;2023-06-19T06:09:28;21.00;99.90
43087;DHT22;28708;52.224;6.924;2023-06-19T06:11:53;21.00;99.90
43087;DHT22;28708;52.224;6.924;2023-06-19T06:14:19;21.10;99.90
43087;DHT22;28708;52.224;6.924;2023-06-19T06:16:45;21.10;99.90
43087;DHT22;28708;52.224;6.924;2023-06-19T06:19:10;21.30;99.90
43087;DHT22;28708;52.224;6.924;2023-06-19T06:21:36;21.00;99.90
43087;DHT22;28708;52.224;6.924;2023-06-19T06:24:02;21.00;99.90
43087;DHT22;28708;52.224;6.924;2023-06-19T06:26:28;21.20;99.90
43087;DHT22;28708;52.224;6.924;2023-06-19T06:28:54;21.20;99.90
43087;DHT22;28708;52.224;6.924;2023-06-19T06:31:22;21.20;99.90
43087;DHT22;28708;52.224;6.924;2023-06-19T06:33:48;20.90;99.90
43087;DHT22;28708;52.224;6.924;2023-06-19T06:36:15;20.80;99.90
43087;DHT22;28708;52.224;6.924;2023-06-19T06:38:40;21.00;99.90
43087;DHT22;28708;52.224;6.924;2023-06-19T06:41:06;21.10;99.90
43087;DHT22;28708;52.224;6.924;2023-06-19T06:43:32;21.30;99.90
43087;DHT22;28708;52.224;6.924;2023-06-19T06:45:58;21.30;99.90
43087;DHT22;28708;52.224;6.924;2023-06-19T06:48:23;21.40;99.90
43087;DHT22;28708;52.224;6.924;2023-06-19T06:50:49;21.40;99.90
43087;DHT22;28708;52.224;6.924;2023-06-19T06:53:15;21.30;99.90
43087;DHT22;28708;52.224;6.924;2023-06-19T06:55:40;21.10;99.90
43087;DHT22;28708;52.224;6.924;2023-06-19T06:58:06;21.10;99.90
43087;DHT22;28708;52.224;6.924;2023-06-19T07:00:32;21.10;99.90
43087;DHT22;28708;52.224;6.924;2023-06-19T07:02:57;21.30;99.90
43087;DHT22;28708;52.224;6.924;2023-06-19T07:05:23;21.60;99.90
43087;DHT22;28708;52.224;6.924;2023-06-19T07:07:49;21.50;99.90
43087;DHT22;28708;52.224;6.924;2023-06-19T07:10:14;21.40;99.90
43087;DHT22;28708;52.224;6.924;2023-06-19T07:12:47;21.20;99.90
43087;DHT22;28708;52.224;6.924;2023-06-19T07:15:14;21.40;99.90
43087;DHT22;28708;52.224;6.924;2023-06-19T07:17:39;21.60;99.90
43087;DHT22;28708;52.224;6.924;2023-06-19T07:20:05;21.60;99.90
43087;DHT22;28708;52.224;6.924;2023-06-19T07:22:32;22.10;99.90
43087;DHT22;28708;52.224;6.924;2023-06-19T07:24:57;22.20;99.90
43087;DHT22;28708;52.224;6.924;2023-06-19T07:27:23;21.90;99.90
43087;DHT22;28708;52.224;6.924;2023-06-19T07:29:53;22.10;99.90
43087;DHT22;28708;52.224;6.924;2023-06-19T07:32:18;22.30;99.90
43087;DHT22;28708;52.224;6.924;2023-06-19T07:34:45;22.00;99.90
43087;DHT22;28708;52.224;6.924;2023-06-19T07:37:11;22.10;99.90
43087;DHT22;28708;52.224;6.924;2023-06-19T07:39:46;22.00;99.90
43087;DHT22;28708;52.224;6.924;2023-06-19T07:42:13;22.00;99.90
43087;DHT22;28708;52.224;6.924;2023-06-19T07:44:39;21.90;99.90
43087;DHT22;28708;52.224;6.924;2023-06-19T07:47:04;21.90;99.90
43087;DHT22;28708;52.224;6.924;2023-06-19T07:49:30;22.10;99.90
43087;DHT22;28708;52.224;6.924;2023-06-19T07:51:56;22.40;99.90
43087;DHT22;28708;52.224;6.924;2023-06-19T07:54:21;22.50;99.90
43087;DHT22;28708;52.224;6.924;2023-06-19T07:56:47;22.30;99.90
43087;DHT22;28708;52.224;6.924;2023-06-19T07:59:13;22.40;99.90
43087;DHT22;28708;52.224;6.924;2023-06-19T08:01:39;22.00;99.90
43087;DHT22;28708;52.224;6.924;2023-06-19T08:04:06;22.00;99.90
43087;DHT22;28708;52.224;6.924;2023-06-19T08:06:31;21.80;99.90
43087;DHT22;28708;52.224;6.924;2023-06-19T08:08:57;21.70;99.90
43087;DHT22;28708;52.224;6.924;2023-06-19T08:11:23;21.70;99.90
43087;DHT22;28708;52.224;6.924;2023-06-19T08:13:49;21.60;99.90
43087;DHT22;28708;52.224;6.924;2023-06-19T08:16:15;21.80;99.90
43087;DHT22;28708;52.224;6.924;2023-06-19T08:18:41;21.90;99.90
43087;DHT22;28708;52.224;6.924;2023-06-19T08:21:06;21.90;99.90
43087;DHT22;28708;52.224;6.924;2023-06-19T08:23:32;21.90;99.90
43087;DHT22;28708;52.224;6.924;2023-06-19T08:25:58;21.90;99.90
43087;DHT22;28708;52.224;6.924;2023-06-19T08:28:24;21.90;99.90
43087;DHT22;28708;52.224;6.924;2023-06-19T08:30:49;21.80;99.90
43087;DHT22;28708;52.224;6.924;2023-06-19T08:33:15;21.70;99.90
43087;DHT22;28708;52.224;6.924;2023-06-19T08:35:41;21.90;99.90
43087;DHT22;28708;52.224;6.924;2023-06-19T08:38:07;22.00;99.90
43087;DHT22;28708;52.224;6.924;2023-06-19T08:40:33;21.80;99.90
43087;DHT22;28708;52.224;6.924;2023-06-19T08:42:58;22.10;99.90
43087;DHT22;28708;52.224;6.924;2023-06-19T08:45:26;22.10;99.90
43087;DHT22;28708;52.224;6.924;2023-06-19T08:48:00;22.30;99.90
43087;DHT22;28708;52.224;6.924;2023-06-19T08:50:26;22.60;99.90
43087;DHT22;28708;52.224;6.924;2023-06-19T08:52:51;22.10;99.90
43087;DHT22;28708;52.224;6.924;2023-06-19T08:55:17;22.30;99.90
43087;DHT22;28708;52.224;6.924;2023-06-19T08:57:43;22.60;99.90
43087;DHT22;28708;52.224;6.924;2023-06-19T09:00:09;22.50;99.90
43087;DHT22;28708;52.224;6.924;2023-06-19T09:02:45;22.70;99.90
43087;DHT22;28708;52.224;6.924;2023-06-19T09:05:17;22.80;99.90
43087;DHT22;28708;52.224;6.924;2023-06-19T09:07:45;22.70;99.90
43087;DHT22;28708;52.224;6.924;2023-06-19T09:10:19;22.70;99.90
43087;DHT22;28708;52.224;6.924;2023-06-19T09:12:59;22.90;99.90
43087;DHT22;28708;52.224;6.924;2023-06-19T09:15:28;22.70;99.90
43087;DHT22;28708;52.224;6.924;2023-06-19T09:18:01;22.80;99.90
43087;DHT22;28708;52.224;6.924;2023-06-19T09:20:28;22.90;99.90
43087;DHT22;28708;52.224;6.924;2023-06-19T09:22:58;23.10;99.90
43087;DHT22;28708;52.224;6.924;2023-06-19T09:25:24;22.90;99.90
43087;DHT22;28708;52.224;6.924;2023-06-19T09:27:53;23.00;99.90
43087;DHT22;28708;52.224;6.924;2023-06-19T09:30:19;23.10;99.90
43087;DHT22;28708;52.224;6.924;2023-06-19T09:32:46;23.70;99.90
43087;DHT22;28708;52.224;6.924;2023-06-19T09:35:12;24.00;99.90
43087;DHT22;28708;52.224;6.924;2023-06-19T09:37:39;24.40;99.90
43087;DHT22;28708;52.224;6.924;2023-06-19T09:40:07;25.60;99.90
43087;DHT22;28708;52.224;6.924;2023-06-19T09:42:38;25.40;99.90
43087;DHT22;28708;52.224;6.924;2023-06-19T09:45:10;25.50;99.90
43087;DHT22;28708;52.224;6.924;2023-06-19T09:47:43;26.40;99.90
43087;DHT22;28708;52.224;6.924;2023-06-19T09:50:12;26.60;99.90
43087;DHT22;28708;52.224;6.924;2023-06-19T09:52:41;25.80;99.90
43087;DHT22;28708;52.224;6.924;2023-06-19T09:55:09;24.50;99.90
43087;DHT22;28708;52.224;6.924;2023-06-19T09:57:36;24.30;99.90
43087;DHT22;28708;52.224;6.924;2023-06-19T10:00:05;24.30;99.90
43087;DHT22;28708;52.224;6.924;2023-06-19T10:02:46;24.10;99.90
43087;DHT22;28708;52.224;6.924;2023-06-19T10:05:12;24.30;99.90
43087;DHT22;28708;52.224;6.924;2023-06-19T10:07:42;24.60;99.90
43087;DHT22;28708;52.224;6.924;2023-06-19T10:10:10;24.30;99.90
43087;DHT22;28708;52.224;6.924;2023-06-19T10:12:45;24.20;99.90
43087;DHT22;28708;52.224;6.924;2023-06-19T10:15:12;25.20;99.90
43087;DHT22;28708;52.224;6.924;2023-06-19T10:17:43;26.30;99.90
43087;DHT22;28708;52.224;6.924;2023-06-19T10:20:25;26.80;99.90
43087;DHT22;28708;52.224;6.924;2023-06-19T10:22:52;25.40;99.90
43087;DHT22;28708;52.224;6.924;2023-06-19T10:25:23;24.50;99.90
43087;DHT22;28708;52.224;6.924;2023-06-19T10:27:49;24.40;99.90
43087;DHT22;28708;52.224;6.924;2023-06-19T10:30:20;25.50;99.90
43087;DHT22;28708;52.224;6.924;2023-06-19T10:32:47;26.40;99.90
43087;DHT22;28708;52.224;6.924;2023-06-19T10:35:14;26.80;99.90
43087;DHT22;28708;52.224;6.924;2023-06-19T10:37:41;26.80;99.90
43087;DHT22;28708;52.224;6.924;2023-06-19T10:40:07;26.70;99.90
43087;DHT22;28708;52.224;6.924;2023-06-19T10:42:38;26.70;99.90
43087;DHT22;28708;52.224;6.924;2023-06-19T10:45:06;28.10;99.90
43087;DHT22;28708;52.224;6.924;2023-06-19T10:47:33;27.90;98.60
43087;DHT22;28708;52.224;6.924;2023-06-19T10:49:58;27.70;97.40
43087;DHT22;28708;52.224;6.924;2023-06-19T10:52:24;28.00;96.70
43087;DHT22;28708;52.224;6.924;2023-06-19T10:54:56;28.00;96.30
43087;DHT22;28708;52.224;6.924;2023-06-19T10:57:31;28.20;94.70
43087;DHT22;28708;52.224;6.924;2023-06-19T10:59:58;28.30;94.80
43087;DHT22;28708;52.224;6.924;2023-06-19T11:02:24;28.80;93.80
43087;DHT22;28708;52.224;6.924;2023-06-19T11:04:54;28.00;92.10
43087;DHT22;28708;52.224;6.924;2023-06-19T11:07:21;27.60;93.70
43087;DHT22;28708;52.224;6.924;2023-06-19T11:09:48;27.60;93.30
43087;DHT22;28708;52.224;6.924;2023-06-19T11:12:19;27.80;92.50
43087;DHT22;28708;52.224;6.924;2023-06-19T11:14:45;27.60;92.80
43087;DHT22;28708;52.224;6.924;2023-06-19T11:17:11;27.90;92.80
43087;DHT22;28708;52.224;6.924;2023-06-19T11:19:37;28.50;92.50
43087;DHT22;28708;52.224;6.924;2023-06-19T11:22:05;28.00;92.60
43087;DHT22;28708;52.224;6.924;2023-06-19T11:24:32;27.80;93.20
43087;DHT22;28708;52.224;6.924;2023-06-19T11:26:58;27.60;93.10
43087;DHT22;28708;52.224;6.924;2023-06-19T11:29:25;27.50;93.10
43087;DHT22;28708;52.224;6.924;2023-06-19T11:31:53;27.50;92.90
43087;DHT22;28708;52.224;6.924;2023-06-19T11:34:30;26.90;92.90
43087;DHT22;28708;52.224;6.924;2023-06-19T11:36:56;27.20;93.30
43087;DHT22;28708;52.224;6.924;2023-06-19T11:39:21;26.80;93.70
43087;DHT22;28708;52.224;6.924;2023-06-19T11:41:47;26.60;94.70
43087;DHT22;28708;52.224;6.924;2023-06-19T11:44:13;26.70;93.40
43087;DHT22;28708;52.224;6.924;2023-06-19T11:46:38;25.80;93.70
43087;DHT22;28708;52.224;6.924;2023-06-19T11:49:22;25.90;94.10
43087;DHT22;28708;52.224;6.924;2023-06-19T11:51:48;25.90;94.50
43087;DHT22;28708;52.224;6.924;2023-06-19T11:54:15;26.20;94.60
43087;DHT22;28708;52.224;6.924;2023-06-19T11:56:41;26.40;94.20
43087;DHT22;28708;52.224;6.924;2023-06-19T11:59:07;26.30;93.80
43087;DHT22;28708;52.224;6.924;2023-06-19T12:01:34;26.60;94.40
43087;DHT22;28708;52.224;6.924;2023-06-19T12:04:00;26.80;93.90
43087;DHT22;28708;52.224;6.924;2023-06-19T12:06:26;26.90;94.20
43087;DHT22;28708;52.224;6.924;2023-06-19T12:08:52;26.60;93.90
43087;DHT22;28708;52.224;6.924;2023-06-19T12:11:18;26.20;94.50
43087;DHT22;28708;52.224;6.924;2023-06-19T12:13:44;26.40;95.30
43087;DHT22;28708;52.224;6.924;2023-06-19T12:16:10;26.30;94.30
43087;DHT22;28708;52.224;6.924;2023-06-19T12:18:36;25.90;95.30
43087;DHT22;28708;52.224;6.924;2023-06-19T12:21:02;26.20;95.10
43087;DHT22;28708;52.224;6.924;2023-06-19T12:23:28;26.60;94.40
43087;DHT22;28708;52.224;6.924;2023-06-19T12:25:54;26.70;93.90
43087;DHT22;28708;52.224;6.924;2023-06-19T12:28:20;27.00;92.70
43087;DHT22;28708;52.224;6.924;2023-06-19T12:30:47;26.80;92.20
43087;DHT22;28708;52.224;6.924;2023-06-19T12:33:15;26.80;92.60
43087;DHT22;28708;52.224;6.924;2023-06-19T12:35:41;26.90;92.00
43087;DHT22;28708;52.224;6.924;2023-06-19T12:38:07;27.00;92.70
43087;DHT22;28708;52.224;6.924;2023-06-19T12:40:33;26.50;93.40
43087;DHT22;28708;52.224;6.924;2023-06-19T12:42:59;26.70;92.20
43087;DHT22;28708;52.224;6.924;2023-06-19T12:45:25;27.10;92.70
43087;DHT22;28708;52.224;6.924;2023-06-19T12:47:50;27.50;91.90
43087;DHT22;28708;52.224;6.924;2023-06-19T12:50:16;27.10;92.10
43087;DHT22;28708;52.224;6.924;2023-06-19T12:52:42;27.40;91.70
43087;DHT22;28708;52.224;6.924;2023-06-19T12:55:07;27.30;91.10
43087;DHT22;28708;52.224;6.924;2023-06-19T12:57:33;27.50;90.30
43087;DHT22;28708;52.224;6.924;2023-06-19T12:59:59;27.00;90.80
43087;DHT22;28708;52.224;6.924;2023-06-19T13:02:25;26.70;91.00
43087;DHT22;28708;52.224;6.924;2023-06-19T13:04:51;26.90;91.80
43087;DHT22;28708;52.224;6.924;2023-06-19T13:07:17;27.10;90.20
43087;DHT22;28708;52.224;6.924;2023-06-19T13:09:43;27.40;90.50
43087;DHT22;28708;52.224;6.924;2023-06-19T13:12:09;27.50;89.10
43087;DHT22;28708;52.224;6.924;2023-06-19T13:14:34;27.40;90.20
43087;DHT22;28708;52.224;6.924;2023-06-19T13:17:00;27.50;90.30
43087;DHT22;28708;52.224;6.924;2023-06-19T13:19:26;27.60;89.30
43087;DHT22;28708;52.224;6.924;2023-06-19T13:21:52;27.90;88.80
43087;DHT22;28708;52.224;6.924;2023-06-19T13:24:21;28.30;89.00
43087;DHT22;28708;52.224;6.924;2023-06-19T13:26:46;28.00;88.30
43087;DHT22;28708;52.224;6.924;2023-06-19T13:29:12;28.10;87.00
43087;DHT22;28708;52.224;6.924;2023-06-19T13:31:38;27.60;88.00
43087;DHT22;28708;52.224;6.924;2023-06-19T13:34:03;27.70;87.90
43087;DHT22;28708;52.224;6.924;2023-06-19T13:36:30;27.70;87.40
43087;DHT22;28708;52.224;6.924;2023-06-19T13:38:56;27.70;88.10
43087;DHT22;28708;52.224;6.924;2023-06-19T13:41:22;27.70;88.00
43087;DHT22;28708;52.224;6.924;2023-06-19T13:43:51;28.00;87.40
43087;DHT22;28708;52.224;6.924;2023-06-19T13:46:19;27.90;88.00
43087;DHT22;28708;52.224;6.924;2023-06-19T13:48:47;28.00;88.20
43087;DHT22;28708;52.224;6.924;2023-06-19T13:51:16;27.60;88.60
43087;DHT22;28708;52.224;6.924;2023-06-19T13:53:42;27.30;88.90
43087;DHT22;28708;52.224;6.924;2023-06-19T13:56:08;27.60;87.40
43087;DHT22;28708;52.224;6.924;2023-06-19T13:58:33;27.60;86.80
43087;DHT22;28708;52.224;6.924;2023-06-19T14:00:59;27.70;86.30
43087;DHT22;28708;52.224;6.924;2023-06-19T14:03:25;27.40;86.50
43087;DHT22;28708;52.224;6.924;2023-06-19T14:05:50;27.80;87.70
43087;DHT22;28708;52.224;6.924;2023-06-19T14:08:16;27.90;86.10
43087;DHT22;28708;52.224;6.924;2023-06-19T14:10:41;28.30;85.00
43087;DHT22;28708;52.224;6.924;2023-06-19T14:13:08;28.20;84.00
43087;DHT22;28708;52.224;6.924;2023-06-19T14:15:34;28.00;84.70
43087;DHT22;28708;52.224;6.924;2023-06-19T14:18:00;28.20;84.30
43087;DHT22;28708;52.224;6.924;2023-06-19T14:20:25;28.30;83.00
43087;DHT22;28708;52.224;6.924;2023-06-19T14:22:51;27.80;84.10
43087;DHT22;28708;52.224;6.924;2023-06-19T14:25:16;27.50;85.00
43087;DHT22;28708;52.224;6.924;2023-06-19T14:27:42;27.50;86.10
43087;DHT22;28708;52.224;6.924;2023-06-19T14:30:08;27.60;84.70
43087;DHT22;28708;52.224;6.924;2023-06-19T14:32:35;28.00;84.60
43087;DHT22;28708;52.224;6.924;2023-06-19T14:35:03;28.30;87.60
43087;DHT22;28708;52.224;6.924;2023-06-19T14:37:29;28.30;87.10
43087;DHT22;28708;52.224;6.924;2023-06-19T14:39:54;28.30;86.30
43087;DHT22;28708;52.224;6.924;2023-06-19T14:42:20;28.10;85.10
43087;DHT22;28708;52.224;6.924;2023-06-19T14:44:46;27.60;86.40
43087;DHT22;28708;52.224;6.924;2023-06-19T14:47:12;27.30;87.90
43087;DHT22;28708;52.224;6.924;2023-06-19T14:49:37;27.70;85.20
43087;DHT22;28708;52.224;6.924;2023-06-19T14:52:04;28.00;82.90
43087;DHT22;28708;52.224;6.924;2023-06-19T14:54:30;28.00;83.80
43087;DHT22;28708;52.224;6.924;2023-06-19T14:56:56;28.20;84.20
43087;DHT22;28708;52.224;6.924;2023-06-19T14:59:22;28.10;83.70
43087;DHT22;28708;52.224;6.924;2023-06-19T15:01:47;28.00;86.00
43087;DHT22;28708;52.224;6.924;2023-06-19T15:04:13;27.80;86.40
43087;DHT22;28708;52.224;6.924;2023-06-19T15:06:39;27.70;86.30
43087;DHT22;28708;52.224;6.924;2023-06-19T15:09:04;27.80;85.10
43087;DHT22;28708;52.224;6.924;2023-06-19T15:11:30;27.70;84.40
43087;DHT22;28708;52.224;6.924;2023-06-19T15:13:56;27.90;85.10
43087;DHT22;28708;52.224;6.924;2023-06-19T15:16:21;27.20;86.00
43087;DHT22;28708;52.224;6.924;2023-06-19T15:18:48;27.40;87.00
43087;DHT22;28708;52.224;6.924;2023-06-19T15:21:14;27.50;85.20
43087;DHT22;28708;52.224;6.924;2023-06-19T15:23:39;27.30;85.60
43087;DHT22;28708;52.224;6.924;2023-06-19T15:26:05;27.30;86.70
43087;DHT22;28708;52.224;6.924;2023-06-19T15:28:32;27.50;85.70
43087;DHT22;28708;52.224;6.924;2023-06-19T15:30:58;27.80;86.90
43087;DHT22;28708;52.224;6.924;2023-06-19T15:33:24;27.50;86.90